Time;durP1;ratioP1;P1;durP2;ratioP2;P2;SDS_P1;SDS_P2;PMS_P1;PMS_P2;Temp;Humidity;BMP_temperature;BMP_pressure;BME280_temperature;BME280_humidity;BME280_pressure;Samples;Min_cycle;Max_cycle;Signal;HPM_P1;HPM_P2
2022/05/31 00:01:42;;;;;;;2.60;2.40;;;8.00;99.90;;;;;;5015817;28;20046;-37
2022/05/31 00:04:08;;;;;;;3.40;3.10;;;8.00;99.90;;;;;;5013728;28;20106;-38
2022/05/31 00:06:33;;;;;;;2.13;1.90;;;7.70;99.90;;;;;;5018218;28;20877;-39
2022/05/31 00:08:59;;;;;;;2.78;2.58;;;7.70;99.90;;;;;;5022695;28;20051;-38
2022/05/31 00:11:25;;;;;;;2.60;2.40;;;7.80;99.90;;;;;;5022730;28;20026;-36
2022/05/31 00:13:51;;;;;;;2.65;2.42;;;7.80;99.90;;;;;;5020580;28;20033;-35
2022/05/31 00:16:17;;;;;;;2.67;2.47;;;7.90;99.90;;;;;;5023128;28;20040;-37
2022/05/31 00:18:42;;;;;;;2.63;2.42;;;7.90;99.90;;;;;;5022603;28;20022;-37
2022/05/31 00:21:08;;;;;;;2.53;2.35;;;7.80;99.90;;;;;;5019768;28;20038;-38
2022/05/31 00:23:35;;;;;;;2.75;2.42;;;7.70;99.90;;;;;;5022586;28;20422;-38
2022/05/31 00:26:00;;;;;;;2.90;2.70;;;7.70;99.90;;;;;;5022069;28;20029;-38
2022/05/31 00:28:26;;;;;;;4.22;3.00;;;7.70;99.90;;;;;;5021849;28;20037;-39
2022/05/31 00:30:53;;;;;;;2.20;2.00;;;7.70;99.90;;;;;;5019082;28;20184;-38
2022/05/31 00:33:19;;;;;;;4.25;2.00;;;7.70;99.90;;;;;;5018777;28;20037;-35
2022/05/31 00:35:48;;;;;;;2.60;2.40;;;7.70;99.90;;;;;;5019701;28;20403;-36
2022/05/31 00:38:15;;;;;;;2.60;2.40;;;7.60;99.90;;;;;;5021876;28;20264;-38
2022/05/31 00:40:41;;;;;;;2.60;2.40;;;7.40;99.90;;;;;;5020254;28;21510;-37
2022/05/31 00:43:12;;;;;;;3.30;2.45;;;7.50;99.90;;;;;;5022201;28;20032;-39
2022/05/31 00:46:01;;;;;;;3.13;2.47;;;7.50;99.90;;;;;;5022778;28;20496;-39
2022/05/31 00:48:46;;;;;;;2.35;2.15;;;7.50;99.90;;;;;;5022917;28;20029;-39
2022/05/31 00:51:14;;;;;;;3.72;2.22;;;7.50;99.90;;;;;;5015007;28;21017;-37
2022/05/31 00:53:56;;;;;;;3.00;2.70;;;7.60;99.90;;;;;;5021892;28;20080;-39
2022/05/31 00:56:24;;;;;;;3.25;2.35;;;7.60;99.90;;;;;;5016302;28;20037;-39
2022/05/31 00:58:58;;;;;;;2.33;2.05;;;7.60;99.90;;;;;;5020810;28;20029;-35
2022/05/31 01:01:26;;;;;;;2.42;2.22;;;7.60;99.90;;;;;;5016919;28;20627;-38
2022/05/31 01:03:51;;;;;;;2.23;2.07;;;7.60;99.90;;;;;;5021713;28;20386;-38
2022/05/31 01:06:17;;;;;;;1.40;1.40;;;7.60;99.90;;;;;;5021548;28;20030;-37
2022/05/31 01:08:45;;;;;;;1.77;1.67;;;7.20;99.90;;;;;;5020334;28;20148;-37
2022/05/31 01:11:18;;;;;;;1.98;1.88;;;7.10;99.90;;;;;;5017976;28;20091;-37
2022/05/31 01:13:44;;;;;;;3.05;2.80;;;7.00;99.90;;;;;;5023447;28;20509;-36
2022/05/31 01:16:12;;;;;;;3.28;2.97;;;6.80;99.90;;;;;;5019562;28;20027;-37
2022/05/31 01:18:38;;;;;;;2.70;2.50;;;6.80;99.90;;;;;;5020500;28;20029;-38
2022/05/31 01:21:05;;;;;;;2.78;2.58;;;6.80;99.90;;;;;;4877043;28;20506;-32
2022/05/31 01:23:42;;;;;;;3.25;2.50;;;6.90;99.90;;;;;;5019855;28;20041;-32
2022/05/31 01:26:41;;;;;;;2.72;2.50;;;7.00;99.90;;;;;;5020561;28;20029;-32
2022/05/31 01:29:14;;;;;;;2.83;2.60;;;7.10;99.90;;;;;;5019064;28;20060;-31
2022/05/31 01:31:56;;;;;;;5.22;3.40;;;7.20;99.90;;;;;;5020154;28;20071;-31
2022/05/31 01:34:46;;;;;;;2.65;2.45;;;7.30;99.90;;;;;;5023054;28;20036;-31
2022/05/31 01:37:12;;;;;;;2.30;2.10;;;7.40;99.90;;;;;;5015427;28;20033;-31
2022/05/31 01:39:53;;;;;;;2.50;2.30;;;7.30;99.90;;;;;;5020535;28;20858;-31
2022/05/31 01:42:31;;;;;;;3.55;2.60;;;7.30;99.90;;;;;;5018212;28;20041;-31
2022/05/31 01:45:05;;;;;;;2.83;2.40;;;7.30;99.90;;;;;;5021478;28;20033;-31
2022/05/31 01:47:31;;;;;;;2.42;2.22;;;7.30;99.90;;;;;;5019030;28;20040;-31
2022/05/31 01:49:57;;;;;;;2.53;2.33;;;7.40;99.90;;;;;;5021917;28;20505;-31
2022/05/31 01:52:23;;;;;;;2.90;2.70;;;7.40;99.90;;;;;;5018509;28;20644;-31
2022/05/31 01:54:51;;;;;;;2.38;2.15;;;7.20;99.90;;;;;;5020850;28;20953;-31
2022/05/31 01:57:18;;;;;;;2.20;2.00;;;7.10;99.90;;;;;;5020021;28;20034;-31
2022/05/31 01:59:56;;;;;;;2.83;2.28;;;7.10;99.90;;;;;;5017769;28;20422;-31
2022/05/31 02:02:22;;;;;;;3.28;2.10;;;7.10;99.90;;;;;;5016916;28;20041;-31
2022/05/31 02:04:48;;;;;;;1.98;1.80;;;7.10;99.90;;;;;;5020520;28;20156;-32
2022/05/31 02:07:16;;;;;;;2.88;2.08;;;7.20;99.90;;;;;;5019479;28;20525;-31
2022/05/31 02:09:46;;;;;;;;;;;7.20;99.90;;;;;;5020291;28;20029;-31
2022/05/31 02:12:13;;;;;;;2.25;2.10;;;7.20;99.90;;;;;;5017189;28;19958;-31
2022/05/31 02:14:40;;;;;;;3.22;2.10;;;7.10;99.90;;;;;;5018313;28;20379;-31
2022/05/31 02:17:06;;;;;;;2.10;2.00;;;7.00;99.90;;;;;;5032103;22;20030;-75
2022/05/31 02:19:33;;;;;;;2.13;2.03;;;7.00;99.90;;;;;;5003237;28;20048;-76
2022/05/31 02:22:05;;;;;;;2.50;2.30;;;7.10;99.90;;;;;;5008470;28;20032;-76
2022/05/31 02:24:30;;;;;;;3.30;2.13;;;7.10;99.90;;;;;;5002915;28;20357;-76
2022/05/31 02:26:57;;;;;;;3.08;2.30;;;7.00;99.90;;;;;;4991554;28;20037;-76
2022/05/31 02:29:26;;;;;;;3.05;2.75;;;7.00;99.90;;;;;;4998535;28;20101;-76
2022/05/31 02:31:53;;;;;;;2.30;2.10;;;7.00;99.90;;;;;;5002571;28;20057;-76
2022/05/31 02:34:22;;;;;;;2.42;2.22;;;7.00;99.90;;;;;;5006735;28;20030;-76
2022/05/31 02:36:49;;;;;;;2.25;2.08;;;7.10;99.90;;;;;;5011864;28;20040;-76
2022/05/31 02:39:16;;;;;;;2.20;2.10;;;7.10;99.90;;;;;;4991427;28;20045;-76
2022/05/31 02:41:41;;;;;;;2.60;2.17;;;7.10;99.90;;;;;;5008103;28;20040;-76
2022/05/31 02:44:08;;;;;;;3.35;2.40;;;7.20;99.90;;;;;;5012673;28;20113;-76
2022/05/31 02:46:37;;;;;;;2.63;2.42;;;7.10;99.90;;;;;;5007458;28;20588;-76
2022/05/31 02:52:07;;;;;;;2.10;1.90;;;7.00;99.90;;;;;;5002814;28;20040;-76
2022/05/31 02:54:33;;;;;;;2.25;2.08;;;6.90;99.90;;;;;;5008417;28;20247;-76
2022/05/31 02:56:58;;;;;;;2.50;2.17;;;7.00;99.90;;;;;;5003105;28;20045;-76
2022/05/31 02:59:25;;;;;;;2.25;2.13;;;7.00;99.90;;;;;;5005205;28;20076;-76
2022/05/31 03:01:51;;;;;;;3.65;2.40;;;7.10;99.90;;;;;;4987512;28;20073;-76
2022/05/31 03:04:18;;;;;;;2.58;2.20;;;7.10;99.90;;;;;;5010133;28;21772;-75
2022/05/31 03:06:50;;;;;;;2.45;2.33;;;6.90;99.90;;;;;;5005240;28;20465;-76
2022/05/31 03:09:16;;;;;;;2.72;2.42;;;6.80;99.90;;;;;;5002802;28;20057;-76
2022/05/31 03:11:56;;;;;;;2.53;2.33;;;6.80;99.90;;;;;;5004205;28;20038;-76
2022/05/31 03:14:41;;;;;;;2.40;2.13;;;6.80;99.90;;;;;;5002484;28;20038;-76
2022/05/31 03:17:14;;;;;;;2.78;2.38;;;6.90;99.90;;;;;;5009738;28;20022;-76
2022/05/31 03:19:52;;;;;;;4.40;2.50;;;6.80;99.90;;;;;;5007704;28;20032;-77
2022/05/31 03:22:23;;;;;;;2.50;2.30;;;6.90;99.90;;;;;;5005742;28;20034;-75
2022/05/31 03:25:01;;;;;;;2.38;2.17;;;6.80;99.90;;;;;;5006220;28;20321;-76
2022/05/31 03:27:44;;;;;;;2.78;2.58;;;6.70;99.90;;;;;;5005995;28;20125;-76
2022/05/31 03:30:11;;;;;;;3.78;2.85;;;6.50;99.90;;;;;;4999463;28;20096;-76
2022/05/31 03:32:37;;;;;;;2.78;2.30;;;6.60;99.90;;;;;;5003000;28;20381;-76
2022/05/31 03:35:10;;;;;;;2.80;2.35;;;6.60;99.90;;;;;;5004583;28;20117;-76
2022/05/31 03:37:36;;;;;;;2.50;2.30;;;6.80;99.90;;;;;;5004953;28;20061;-76
2022/05/31 03:40:03;;;;;;;2.85;2.17;;;6.70;99.90;;;;;;5011111;28;20358;-77
2022/05/31 03:42:31;;;;;;;2.40;2.30;;;6.60;99.90;;;;;;5005525;28;20026;-76
2022/05/31 03:44:57;;;;;;;2.50;2.30;;;6.60;99.90;;;;;;5004477;28;20033;-76
2022/05/31 03:47:23;;;;;;;3.17;2.40;;;6.70;99.90;;;;;;5006748;28;20484;-76
2022/05/31 03:49:49;;;;;;;4.28;2.75;;;6.80;99.90;;;;;;4991861;28;20049;-76
2022/05/31 03:52:18;;;;;;;2.90;2.70;;;6.80;99.90;;;;;;5010412;28;20492;-76
2022/05/31 03:54:47;;;;;;;2.30;2.20;;;6.80;99.90;;;;;;4996778;28;20042;-76
2022/05/31 03:57:16;;;;;;;3.13;2.83;;;6.90;99.90;;;;;;5000637;28;20038;-76
2022/05/31 03:59:42;;;;;;;2.30;2.10;;;6.90;99.90;;;;;;4987105;28;20045;-76
2022/05/31 04:02:14;;;;;;;2.72;2.55;;;6.90;99.90;;;;;;5001918;28;20042;-76
2022/05/31 04:04:40;;;;;;;2.75;2.53;;;6.90;99.90;;;;;;5008296;28;20453;-77
2022/05/31 04:07:06;;;;;;;2.85;2.65;;;7.00;99.90;;;;;;5000794;28;20640;-76
2022/05/31 04:09:32;;;;;;;2.40;2.20;;;7.00;99.90;;;;;;5005144;28;20064;-76
2022/05/31 04:11:59;;;;;;;3.05;2.80;;;7.00;99.90;;;;;;5006231;28;20026;-76
2022/05/31 04:14:25;;;;;;;2.60;2.40;;;6.80;99.90;;;;;;5004530;28;20490;-76
2022/05/31 04:16:51;;;;;;;2.80;2.60;;;6.70;99.90;;;;;;5007405;28;20030;-76
2022/05/31 04:19:16;;;;;;;2.40;2.30;;;6.80;99.90;;;;;;5008286;28;20211;-76
2022/05/31 04:21:42;;;;;;;2.58;2.38;;;6.90;99.90;;;;;;4997587;28;20038;-75
2022/05/31 04:24:09;;;;;;;3.70;2.83;;;7.00;99.90;;;;;;5007480;28;20040;-75
2022/05/31 04:26:43;;;;;;;3.38;2.85;;;7.10;99.90;;;;;;4985417;28;20513;-76
2022/05/31 04:29:09;;;;;;;4.90;3.10;;;7.10;99.90;;;;;;4985999;28;20075;-76
2022/05/31 04:31:35;;;;;;;2.75;2.53;;;7.10;99.90;;;;;;5002466;28;20050;-77
2022/05/31 04:34:03;;;;;;;3.80;2.88;;;7.20;99.90;;;;;;5004829;28;20033;-76
2022/05/31 04:36:29;;;;;;;2.92;2.67;;;7.40;99.90;;;;;;5006082;28;20041;-76
2022/05/31 04:38:54;;;;;;;2.72;2.47;;;7.60;99.90;;;;;;5000958;28;20030;-76
2022/05/31 04:41:26;;;;;;;3.30;3.00;;;7.70;99.90;;;;;;5005083;28;20605;-76
2022/05/31 04:43:53;;;;;;;2.97;2.67;;;7.90;99.90;;;;;;5006645;28;20370;-76
2022/05/31 04:46:21;;;;;;;3.10;2.90;;;7.90;99.90;;;;;;5005733;28;20616;-76
2022/05/31 04:48:47;;;;;;;3.28;3.08;;;7.90;99.90;;;;;;5001424;28;20033;-76
2022/05/31 04:51:14;;;;;;;3.20;2.90;;;7.90;99.90;;;;;;5001225;28;20048;-76
2022/05/31 04:53:40;;;;;;;3.65;3.33;;;7.90;99.90;;;;;;5004699;28;20377;-76
2022/05/31 04:56:09;;;;;;;4.38;3.25;;;7.90;99.90;;;;;;5003680;28;20022;-77
2022/05/31 04:58:35;;;;;;;;;;;8.00;99.90;;;;;;5002688;28;20137;-77
2022/05/31 05:01:06;;;;;;;6.22;3.50;;;8.30;99.90;;;;;;5001068;28;19917;-76
2022/05/31 05:03:33;;;;;;;3.65;3.35;;;8.60;99.90;;;;;;5002112;28;20034;-76
2022/05/31 05:06:04;;;;;;;4.13;3.72;;;8.80;99.90;;;;;;5003527;28;20041;-76
2022/05/31 05:08:31;;;;;;;4.00;3.63;;;8.90;99.90;;;;;;4986080;28;20053;-76
2022/05/31 05:10:59;;;;;;;6.03;4.75;;;9.10;99.90;;;;;;4998571;28;20099;-76
2022/05/31 05:13:25;;;;;;;4.72;4.28;;;9.40;99.90;;;;;;5004856;28;20397;-76
2022/05/31 05:15:53;;;;;;;4.78;4.03;;;9.60;99.90;;;;;;5006508;28;20058;-76
2022/05/31 05:18:19;;;;;;;5.15;4.63;;;9.70;99.90;;;;;;5006707;28;20504;-77
2022/05/31 05:20:45;;;;;;;5.50;5.00;;;10.00;99.90;;;;;;5006686;28;20041;-76
2022/05/31 05:23:11;;;;;;;4.60;4.18;;;10.30;99.90;;;;;;5002846;28;20243;-77
2022/05/31 05:26:16;;;;;;;4.78;4.35;;;10.40;99.90;;;;;;4987477;28;20121;-77
2022/05/31 05:31:33;;;;;;;4.22;3.80;;;10.60;99.90;;;;;;5004669;28;20137;-76
2022/05/31 05:34:00;;;;;;;4.40;4.00;;;10.80;99.90;;;;;;4985672;28;20041;-76
2022/05/31 05:36:27;;;;;;;8.00;4.57;;;11.00;99.90;;;;;;4986552;28;20026;-76
2022/05/31 05:38:53;;;;;;;4.60;4.15;;;11.10;99.90;;;;;;5003741;28;20044;-76
2022/05/31 05:41:20;;;;;;;4.90;3.88;;;11.30;99.90;;;;;;5008333;28;20116;-77
2022/05/31 05:43:46;;;;;;;4.93;4.18;;;11.50;99.90;;;;;;5005478;28;20060;-76
2022/05/31 05:46:18;;;;;;;4.85;3.80;;;11.80;99.90;;;;;;5003820;28;20044;-76
2022/05/31 05:48:45;;;;;;;6.30;3.70;;;12.00;99.90;;;;;;5007966;28;20030;-76
2022/05/31 05:51:17;;;;;;;5.50;3.75;;;12.20;99.90;;;;;;4994706;28;20074;-76
2022/05/31 05:53:43;;;;;;;3.85;3.42;;;12.10;99.90;;;;;;5010382;28;20037;-76
2022/05/31 05:56:10;;;;;;;4.45;3.78;;;12.10;99.90;;;;;;5010588;28;20037;-77
2022/05/31 05:58:37;;;;;;;4.65;3.78;;;12.10;99.90;;;;;;5005383;28;20033;-76
2022/05/31 06:01:05;;;;;;;4.60;4.05;;;12.00;99.90;;;;;;5000625;28;20049;-77
2022/05/31 06:03:56;;;;;;;3.88;3.58;;;12.10;99.90;;;;;;5006610;28;20100;-76
2022/05/31 06:06:31;;;;;;;4.57;3.70;;;12.30;99.90;;;;;;5005528;28;20473;-76
2022/05/31 06:09:02;;;;;;;5.18;4.35;;;12.20;99.90;;;;;;5005832;28;20045;-76
2022/05/31 06:11:35;;;;;;;3.63;3.33;;;12.30;99.90;;;;;;5008106;28;20373;-76
2022/05/31 06:14:10;;;;;;;3.60;3.30;;;12.50;99.90;;;;;;5008699;28;20369;-76
2022/05/31 06:16:40;;;;;;;4.03;3.63;;;12.50;99.90;;;;;;5009396;28;20029;-76
2022/05/31 06:19:21;;;;;;;3.90;3.13;;;12.50;99.90;;;;;;5010990;28;20046;-77
2022/05/31 06:21:50;;;;;;;3.75;3.38;;;12.60;99.90;;;;;;5007490;28;20113;-76
2022/05/31 06:24:20;;;;;;;3.83;3.47;;;12.70;99.90;;;;;;5011851;28;21612;-77
2022/05/31 06:26:46;;;;;;;4.25;3.60;;;12.70;99.90;;;;;;5004425;28;20107;-76
2022/05/31 06:29:12;;;;;;;4.10;3.58;;;12.70;99.90;;;;;;5010495;28;20540;-76
2022/05/31 06:31:38;;;;;;;5.20;3.38;;;12.80;99.90;;;;;;5007060;28;20073;-75
2022/05/31 06:34:05;;;;;;;2.85;2.65;;;13.00;99.90;;;;;;4998394;28;20065;-77
2022/05/31 06:36:31;;;;;;;3.58;3.28;;;13.20;99.90;;;;;;5010338;28;20034;-76
2022/05/31 06:38:57;;;;;;;3.72;2.97;;;13.30;99.90;;;;;;4996570;28;20048;-76
2022/05/31 06:41:23;;;;;;;3.08;2.42;;;13.40;99.90;;;;;;5009088;28;20461;-77
2022/05/31 06:43:48;;;;;;;2.50;2.30;;;13.40;99.90;;;;;;5007195;28;20030;-78
2022/05/31 06:46:15;;;;;;;2.83;2.63;;;13.40;99.90;;;;;;4988777;28;20038;-77
2022/05/31 06:48:41;;;;;;;2.78;2.50;;;13.40;99.90;;;;;;5014494;28;20037;-77
2022/05/31 06:51:10;;;;;;;2.33;2.13;;;13.40;99.90;;;;;;4985566;28;20034;-77
2022/05/31 06:59:04;;;;;;;3.20;2.20;;;13.50;99.90;;;;;;5009381;28;20045;-77
2022/05/31 07:01:37;;;;;;;2.65;2.13;;;13.40;99.90;;;;;;5012467;28;20176;-77
2022/05/31 07:04:12;;;;;;;3.95;2.50;;;13.50;99.90;;;;;;5011131;28;20062;-77
2022/05/31 07:06:38;;;;;;;3.13;2.58;;;13.50;99.90;;;;;;5008219;28;20113;-77
2022/05/31 07:09:04;;;;;;;2.50;2.30;;;13.60;99.90;;;;;;5005751;28;20599;-76
2022/05/31 07:11:30;;;;;;;2.53;2.22;;;13.50;99.90;;;;;;5007977;28;20076;-77
2022/05/31 07:13:56;;;;;;;2.10;1.98;;;13.60;99.90;;;;;;4992988;28;20464;-77
2022/05/31 07:16:22;;;;;;;2.47;2.28;;;13.60;99.90;;;;;;5009742;28;20037;-77
2022/05/31 07:18:48;;;;;;;5.75;5.35;;;13.70;99.90;;;;;;5007980;28;20049;-77
2022/05/31 07:21:14;;;;;;;2.58;2.38;;;13.90;99.90;;;;;;5007024;28;20053;-77
2022/05/31 07:23:41;;;;;;;2.65;2.28;;;14.00;99.90;;;;;;5007564;28;20392;-77
2022/05/31 07:26:08;;;;;;;2.50;2.28;;;14.00;99.90;;;;;;5006531;28;20443;-77
2022/05/31 07:28:33;;;;;;;2.63;2.42;;;14.10;99.90;;;;;;5008672;28;20037;-77
2022/05/31 07:31:00;;;;;;;3.05;2.15;;;14.50;99.90;;;;;;5004499;28;20409;-77
2022/05/31 07:33:26;;;;;;;2.40;2.10;;;14.50;99.90;;;;;;5002800;28;20534;-77
2022/05/31 07:35:52;;;;;;;3.03;2.50;;;14.70;99.90;;;;;;5001056;28;20030;-77
2022/05/31 07:38:20;;;;;;;2.38;2.08;;;15.00;99.90;;;;;;5002272;28;20070;-77
2022/05/31 07:40:47;;;;;;;2.20;2.00;;;15.30;99.90;;;;;;5007179;28;20057;-77
2022/05/31 07:43:13;;;;;;;1.98;1.83;;;15.80;98.20;;;;;;5009364;28;20339;-77
2022/05/31 07:45:39;;;;;;;1.58;1.50;;;15.70;99.40;;;;;;4992365;28;20045;-77
2022/05/31 07:48:06;;;;;;;2.63;1.80;;;15.60;97.70;;;;;;4977805;28;20042;-77
2022/05/31 07:50:32;;;;;;;1.73;1.63;;;15.60;99.50;;;;;;5006192;28;20038;-76
2022/05/31 07:52:59;;;;;;;3.80;1.80;;;15.70;93.10;;;;;;4980868;28;20033;-78
2022/05/31 07:55:28;;;;;;;1.50;1.40;;;15.60;94.80;;;;;;5008294;28;20037;-78
2022/05/31 08:00:40;;;;;;;2.70;1.80;;;16.00;94.80;;;;;;5002087;28;20479;-78
2022/05/31 08:03:06;;;;;;;1.95;1.77;;;16.20;93.40;;;;;;5006841;28;20034;-77
2022/05/31 08:05:35;;;;;;;1.85;1.75;;;16.50;93.10;;;;;;5008015;28;20033;-76
2022/05/31 08:08:01;;;;;;;1.65;1.55;;;16.80;89.90;;;;;;5008818;28;20038;-77
2022/05/31 08:10:28;;;;;;;2.67;1.80;;;16.70;92.80;;;;;;5006157;28;20049;-77
2022/05/31 08:12:54;;;;;;;2.05;1.95;;;17.00;92.70;;;;;;4993550;28;20101;-77
2022/05/31 08:15:20;;;;;;;1.77;1.67;;;17.20;95.60;;;;;;5006707;28;20049;-77
2022/05/31 08:17:46;;;;;;;2.40;1.70;;;17.20;91.70;;;;;;5001654;28;20054;-76
2022/05/31 08:20:13;;;;;;;2.22;1.70;;;17.20;90.30;;;;;;5001402;28;20101;-77
2022/05/31 08:22:39;;;;;;;2.83;1.58;;;17.40;90.70;;;;;;5007521;28;20466;-77
2022/05/31 08:25:06;;;;;;;3.08;1.45;;;17.60;79.60;;;;;;5011125;28;20374;-77
2022/05/31 08:27:34;;;;;;;2.17;1.63;;;17.60;69.30;;;;;;5008112;28;20813;-77
2022/05/31 08:30:01;;;;;;;3.15;1.88;;;17.40;75.80;;;;;;4991498;28;20080;-77
2022/05/31 08:32:27;;;;;;;2.75;1.90;;;17.30;89.30;;;;;;5005519;28;20481;-77
2022/05/31 08:34:52;;;;;;;2.10;1.50;;;17.40;86.50;;;;;;5005688;28;20310;-76
2022/05/31 08:37:18;;;;;;;4.25;1.65;;;17.60;90.10;;;;;;4992764;28;20044;-77
2022/05/31 08:39:44;;;;;;;1.77;1.38;;;17.70;78.30;;;;;;5003946;28;20428;-77
2022/05/31 08:42:13;;;;;;;2.10;1.33;;;17.90;76.50;;;;;;5006444;28;20022;-77
2022/05/31 08:45:07;;;;;;;2.60;1.58;;;18.10;71.10;;;;;;5003358;28;20443;-77
2022/05/31 08:47:45;;;;;;;2.13;1.30;;;18.10;76.60;;;;;;5004377;28;20045;-77
2022/05/31 08:53:15;;;;;;;3.10;1.50;;;18.30;77.40;;;;;;5005782;28;20030;-76
2022/05/31 08:59:06;;;;;;;1.92;1.50;;;18.30;83.60;;;;;;5006015;28;20095;-76
2022/05/31 09:01:37;;;;;;;1.77;1.33;;;18.50;73.90;;;;;;5004191;28;20481;-76
2022/05/31 09:04:20;;;;;;;1.50;1.40;;;18.80;66.30;;;;;;5001135;28;20108;-76
2022/05/31 09:06:54;;;;;;;2.53;1.42;;;19.10;74.80;;;;;;5008702;28;20029;-77
2022/05/31 09:09:29;;;;;;;1.33;1.23;;;19.50;66.60;;;;;;5004450;28;20537;-77
2022/05/31 09:12:25;;;;;;;1.50;1.25;;;19.60;63.50;;;;;;5002719;28;20034;-77
2022/05/31 09:15:09;;;;;;;1.42;1.25;;;19.90;59.80;;;;;;5009422;28;20392;-77
2022/05/31 09:17:46;;;;;;;1.40;1.30;;;20.20;62.90;;;;;;4991684;28;20054;-76
2022/05/31 09:20:17;;;;;;;2.78;1.50;;;20.20;71.40;;;;;;5003650;28;20033;-77
2022/05/31 09:22:45;;;;;;;1.00;1.00;;;20.30;63.20;;;;;;4989448;28;20036;-76
2022/05/31 09:25:12;;;;;;;1.40;1.30;;;20.40;63.10;;;;;;5006295;28;20397;-77
2022/05/31 09:27:44;;;;;;;2.95;1.48;;;20.80;57.80;;;;;;4992238;28;20048;-76
2022/05/31 09:30:38;;;;;;;1.50;1.40;;;20.60;55.30;;;;;;5008407;28;20044;-76
2022/05/31 09:33:28;;;;;;;2.03;1.48;;;21.00;55.90;;;;;;5002311;28;20112;-76
2022/05/31 09:36:10;;;;;;;1.10;1.10;;;20.60;61.90;;;;;;5007559;28;20041;-76
2022/05/31 09:38:38;;;;;;;1.30;1.30;;;20.40;55.80;;;;;;5009031;28;20096;-76
2022/05/31 09:41:26;;;;;;;2.65;1.40;;;20.70;50.40;;;;;;5002112;28;20030;-77
2022/05/31 09:44:09;;;;;;;1.70;1.42;;;20.60;50.20;;;;;;4995874;28;20029;-77
2022/05/31 09:47:04;;;;;;;1.38;1.27;;;20.70;52.40;;;;;;5010025;28;20433;-77
2022/05/31 09:49:33;;;;;;;1.23;1.10;;;21.00;50.40;;;;;;5007155;28;20036;-77
2022/05/31 09:51:59;;;;;;;2.63;1.30;;;21.80;50.60;;;;;;5008164;28;20069;-77
2022/05/31 09:57:22;;;;;;;2.83;1.10;;;22.40;49.30;;;;;;5008833;28;20028;-77
2022/05/31 09:59:52;;;;;;;2.70;1.00;;;22.00;49.80;;;;;;5009538;28;20454;-77
2022/05/31 10:02:33;;;;;;;1.05;0.85;;;21.60;53.70;;;;;;5008596;28;20046;-77
2022/05/31 10:05:21;;;;;;;1.10;1.10;;;22.10;54.10;;;;;;4997599;28;20030;-78
2022/05/31 10:07:47;;;;;;;;;;;22.30;53.10;;;;;;4989551;28;20030;-77
2022/05/31 10:10:34;;;;;;;1.00;1.00;;;22.30;51.10;;;;;;5000157;28;19940;-77
2022/05/31 10:13:09;;;;;;;1.58;1.30;;;22.30;46.90;;;;;;4990157;28;20030;-77
2022/05/31 10:15:43;;;;;;;1.65;1.40;;;22.80;49.80;;;;;;4997681;28;20565;-78
2022/05/31 10:18:24;;;;;;;1.10;1.10;;;22.70;47.70;;;;;;4999187;28;20068;-78
2022/05/31 10:21:00;;;;;;;1.73;1.30;;;23.00;47.40;;;;;;4981974;28;20522;-77
2022/05/31 10:23:37;;;;;;;1.30;1.15;;;23.30;50.70;;;;;;5002169;28;20401;-77
2022/05/31 10:26:03;;;;;;;1.27;1.17;;;22.40;49.50;;;;;;5003277;28;20033;-77
2022/05/31 10:28:32;;;;;;;2.88;1.50;;;22.60;50.80;;;;;;5009281;28;20477;-77
2022/05/31 10:31:13;;;;;;;2.72;1.35;;;22.10;43.90;;;;;;5005326;28;20133;-77
2022/05/31 10:33:40;;;;;;;3.50;1.50;;;22.40;49.90;;;;;;4999971;28;20042;-77
2022/05/31 10:36:16;;;;;;;1.63;1.30;;;21.90;48.40;;;;;;5004362;28;20462;-77
2022/05/31 10:38:45;;;;;;;1.10;1.10;;;21.90;54.50;;;;;;5002508;28;20448;-77
2022/05/31 10:41:25;;;;;;;2.35;1.17;;;22.30;52.10;;;;;;5005389;28;20096;-77
2022/05/31 10:44:01;;;;;;;1.50;1.30;;;22.40;52.80;;;;;;5004330;28;20168;-77
2022/05/31 10:46:30;;;;;;;1.42;1.25;;;23.00;46.30;;;;;;5001824;28;20037;-77
2022/05/31 10:49:22;;;;;;;2.75;1.23;;;23.00;46.70;;;;;;5005454;28;20095;-77
2022/05/31 10:52:12;;;;;;;1.52;1.30;;;22.60;47.30;;;;;;4983429;28;20049;-77
2022/05/31 10:54:46;;;;;;;2.40;1.50;;;22.50;47.10;;;;;;5005960;28;20034;-77
2022/05/31 10:57:12;;;;;;;3.00;1.38;;;22.80;46.10;;;;;;5006273;28;20127;-77
2022/05/31 10:59:54;;;;;;;1.55;1.42;;;22.60;48.00;;;;;;5008200;28;20510;-77
2022/05/31 11:02:51;;;;;;;2.45;1.67;;;22.10;47.60;;;;;;5006245;28;20176;-77
2022/05/31 11:05:21;;;;;;;1.55;1.35;;;21.70;48.40;;;;;;5008894;28;20026;-77
2022/05/31 11:11:29;;;;;;;2.38;1.60;;;21.30;48.70;;;;;;5007340;28;20598;-77
2022/05/31 11:14:09;;;;;;;4.03;1.50;;;21.30;51.80;;;;;;4965382;28;20544;-77
2022/05/31 11:17:15;;;;;;;2.58;1.58;;;21.40;48.80;;;;;;5008540;28;20026;-78
2022/05/31 11:20:09;;;;;;;1.85;1.15;;;21.50;50.20;;;;;;5002889;28;20108;-77
2022/05/31 11:22:39;;;;;;;3.08;1.50;;;21.90;49.50;;;;;;5006937;28;20394;-77
2022/05/31 11:25:32;;;;;;;1.70;1.58;;;21.90;50.60;;;;;;5002665;28;20029;-77
2022/05/31 11:28:01;;;;;;;1.60;1.50;;;21.70;48.60;;;;;;5002974;28;20035;-77
2022/05/31 11:30:32;;;;;;;1.45;1.35;;;21.60;47.60;;;;;;5002707;28;20401;-77
2022/05/31 11:33:06;;;;;;;1.58;1.45;;;21.80;47.40;;;;;;5007929;28;20040;-77
2022/05/31 11:36:00;;;;;;;2.40;1.50;;;21.90;47.00;;;;;;5007830;28;20030;-77
2022/05/31 11:38:53;;;;;;;2.20;1.52;;;21.80;47.20;;;;;;5009335;28;20121;-77
2022/05/31 11:41:39;;;;;;;1.70;1.52;;;22.10;44.60;;;;;;5008308;28;20040;-77
2022/05/31 11:44:42;;;;;;;1.70;1.58;;;21.90;46.80;;;;;;5009057;28;20034;-78
2022/05/31 11:47:34;;;;;;;1.70;1.60;;;21.80;48.70;;;;;;5006390;28;20053;-77
2022/05/31 11:50:15;;;;;;;4.40;1.50;;;22.10;48.60;;;;;;4966034;28;20391;-77
2022/05/31 11:53:13;;;;;;;4.50;1.60;;;22.10;47.90;;;;;;5009871;28;20053;-77
2022/05/31 11:55:50;;;;;;;1.42;1.30;;;22.40;49.00;;;;;;5010265;28;20461;-77
2022/05/31 11:58:28;;;;;;;2.03;1.35;;;22.30;43.00;;;;;;5006208;28;20128;-78
2022/05/31 12:01:18;;;;;;;1.55;1.45;;;22.10;45.70;;;;;;5002167;28;20128;-76
2022/05/31 12:03:56;;;;;;;1.80;1.52;;;21.80;44.70;;;;;;5007540;28;20028;-77
2022/05/31 12:06:40;;;;;;;2.15;1.60;;;21.70;46.10;;;;;;5007480;28;20397;-78
2022/05/31 12:09:27;;;;;;;1.50;1.40;;;21.90;47.10;;;;;;4999717;28;20034;-77
2022/05/31 12:12:20;;;;;;;1.85;1.50;;;22.00;46.10;;;;;;5002682;28;20034;-77
2022/05/31 12:14:50;;;;;;;2.35;1.27;;;22.30;45.40;;;;;;5009520;28;20734;-77
2022/05/31 12:17:21;;;;;;;2.63;1.38;;;22.40;46.00;;;;;;5012605;28;20058;-77
2022/05/31 12:19:56;;;;;;;1.63;1.40;;;22.30;44.70;;;;;;5009098;28;20022;-77
2022/05/31 12:22:27;;;;;;;1.48;1.38;;;21.90;46.10;;;;;;5003301;28;20029;-76
2022/05/31 12:24:57;;;;;;;1.52;1.42;;;21.90;46.60;;;;;;5007818;28;20053;-76
2022/05/31 12:27:49;;;;;;;1.55;1.45;;;21.80;44.70;;;;;;5009970;28;20690;-77
2022/05/31 12:30:28;;;;;;;1.27;1.20;;;21.80;44.70;;;;;;5003799;28;20121;-77
2022/05/31 12:32:54;;;;;;;3.80;1.70;;;21.80;45.00;;;;;;5005046;28;20101;-77
2022/05/31 12:35:31;;;;;;;6.43;1.65;;;21.90;45.90;;;;;;5007987;28;20034;-77
2022/05/31 12:38:00;;;;;;;1.77;1.40;;;21.80;46.30;;;;;;5006583;28;20040;-77
2022/05/31 12:40:38;;;;;;;2.65;2.00;;;21.90;46.70;;;;;;5005609;28;20034;-77
2022/05/31 12:43:09;;;;;;;;;;;21.90;45.60;;;;;;5006410;28;20030;-77
2022/05/31 12:45:34;;;;;;;2.45;1.38;;;21.90;47.50;;;;;;5001605;28;19920;-77
2022/05/31 12:48:11;;;;;;;2.05;1.50;;;22.00;46.80;;;;;;5008526;28;20038;-77
2022/05/31 12:50:54;;;;;;;1.80;1.70;;;22.10;48.20;;;;;;5007245;28;20042;-76
2022/05/31 12:53:37;;;;;;;1.60;1.35;;;22.10;48.70;;;;;;5006402;28;20424;-76
2022/05/31 12:56:08;;;;;;;1.65;1.55;;;22.00;46.30;;;;;;5004024;28;20034;-77
2022/05/31 12:58:45;;;;;;;4.63;1.48;;;22.10;48.20;;;;;;4997256;28;20128;-77
2022/05/31 13:01:10;;;;;;;2.03;1.60;;;22.00;47.80;;;;;;5006926;28;20081;-77
2022/05/31 13:03:42;;;;;;;1.50;1.40;;;21.90;47.40;;;;;;5009095;28;20487;-77
2022/05/31 13:06:35;;;;;;;1.92;1.40;;;21.80;46.40;;;;;;5002667;28;20029;-77
2022/05/31 13:09:13;;;;;;;1.60;1.50;;;21.90;48.40;;;;;;5001379;28;20083;-77
2022/05/31 13:20:21;;;;;;;1.50;1.30;;;21.60;48.60;;;;;;5000380;28;20045;-77
2022/05/31 13:22:53;;;;;;;2.03;1.50;;;21.50;48.50;;;;;;4999533;28;20537;-77
2022/05/31 13:25:28;;;;;;;2.08;1.38;;;21.30;48.80;;;;;;4988556;28;20038;-76
2022/05/31 13:28:00;;;;;;;2.85;1.45;;;21.40;47.80;;;;;;5007699;28;20041;-77
2022/05/31 13:30:42;;;;;;;1.55;1.30;;;21.40;47.60;;;;;;5000741;28;20381;-77
2022/05/31 13:33:19;;;;;;;2.08;1.60;;;21.40;49.30;;;;;;5002773;28;20033;-77
2022/05/31 13:35:54;;;;;;;3.17;1.42;;;21.40;50.10;;;;;;5004431;28;20438;-76
2022/05/31 13:38:24;;;;;;;2.28;1.35;;;21.20;50.00;;;;;;5002380;28;20045;-77
2022/05/31 13:40:56;;;;;;;1.77;1.30;;;21.00;46.50;;;;;;5001183;28;20113;-77
2022/05/31 13:43:38;;;;;;;1.65;1.08;;;20.90;47.60;;;;;;5003504;28;20053;-77
2022/05/31 13:46:17;;;;;;;2.05;1.70;;;20.70;48.80;;;;;;4997962;28;20445;-77
2022/05/31 13:48:49;;;;;;;3.35;1.35;;;20.30;47.40;;;;;;5008089;28;20393;-76
2022/05/31 13:51:22;;;;;;;1.20;1.10;;;20.20;46.10;;;;;;5002124;28;20042;-77
2022/05/31 13:53:47;;;;;;;2.53;1.10;;;20.00;46.40;;;;;;4986238;28;20041;-77